Terminal Aerodrome Forecast
Issued by NWS Pittsburgh, PA

Current Version | Previous Version | Graphics & Text | Print | Product List | Glossary On
Versions: 1 2 3 4 5 6 7 8 9 10 11 12 13 14 15 16 17 18 19 20 21 22 23 24 25 26
903
FTUS41 KPBZ 221134
TAFPIT
TAF
KPIT 221134Z 2212/2318 VRB03KT P6SM SKC
     FM221330 29004KT P6SM SCT008
      TEMPO 2214/2215 BKN010
     FM221600 33005KT P6SM SCT040
     FM222300 VRB03KT P6SM FEW250=

USA.gov is the U.S. government's official web portal to all federal, state and local government web resources and services.